createdAt,value
2018-09-05T00:01:06.540Z,73.30
2018-09-05T00:03:36.136Z,73.20
2018-09-05T00:06:05.988Z,73.40
2018-09-05T00:08:35.578Z,73.50
2018-09-05T00:11:05.395Z,73.60
2018-09-05T00:13:35.213Z,73.60
2018-09-05T00:16:05.213Z,73.70
2018-09-05T00:18:34.900Z,73.60
2018-09-05T00:21:04.582Z,73.40
2018-09-05T00:23:34.299Z,73.80
2018-09-05T00:26:04.194Z,74.10
2018-09-05T00:28:33.815Z,73.80
2018-09-05T00:31:03.594Z,74.00
2018-09-05T00:33:33.266Z,74.00
2018-09-05T00:36:02.998Z,74.20
2018-09-05T00:38:32.790Z,74.80
2018-09-05T00:41:02.506Z,75.00
2018-09-05T00:43:32.202Z,75.50
2018-09-05T00:46:01.906Z,75.00
2018-09-05T00:48:31.588Z,74.90
2018-09-05T00:51:01.309Z,75.30
2018-09-05T00:53:30.900Z,75.30
2018-09-05T00:56:00.475Z,75.10
2018-09-05T00:58:30.070Z,75.10
2018-09-05T01:00:59.831Z,75.30
2018-09-05T01:03:29.442Z,75.10
2018-09-05T01:05:59.044Z,75.20
2018-09-05T01:08:28.713Z,75.00
2018-09-05T01:10:58.290Z,75.00
2018-09-05T01:13:27.983Z,75.00
2018-09-05T01:15:57.687Z,75.20
2018-09-05T01:18:27.331Z,75.10
2018-09-05T01:20:57.013Z,75.20
2018-09-05T01:23:26.661Z,75.30
2018-09-05T01:25:56.225Z,75.40
2018-09-05T01:28:26.011Z,75.20
2018-09-05T01:30:55.598Z,75.10
2018-09-05T01:33:25.302Z,75.20
2018-09-05T01:35:59.019Z,75.20
2018-09-05T01:38:28.744Z,75.10
2018-09-05T01:40:58.409Z,75.00
2018-09-05T01:43:28.143Z,75.30
2018-09-05T01:45:57.901Z,75.40
2018-09-05T01:48:27.667Z,75.40
2018-09-05T01:50:57.335Z,75.50
2018-09-05T01:53:26.943Z,75.50
2018-09-05T01:55:56.619Z,75.50
2018-09-05T01:58:26.205Z,75.50
2018-09-05T02:00:55.893Z,75.50
2018-09-05T02:03:25.613Z,75.90
2018-09-05T02:05:55.230Z,77.00
2018-09-05T02:08:24.956Z,76.30
2018-09-05T02:10:54.559Z,76.10
2018-09-05T02:13:24.240Z,76.10
2018-09-05T02:15:53.904Z,76.30
2018-09-05T02:18:23.505Z,76.40
2018-09-05T02:20:53.115Z,76.50
2018-09-05T02:23:22.874Z,76.60
2018-09-05T02:25:52.619Z,76.60
2018-09-05T02:28:22.282Z,76.80
2018-09-05T02:30:51.855Z,77.00
2018-09-05T02:33:21.481Z,77.10
2018-09-05T02:35:51.190Z,76.70
2018-09-05T02:38:21.217Z,76.60
2018-09-05T02:40:51.031Z,76.90
2018-09-05T02:44:29.481Z,77.00
2018-09-05T02:46:59.151Z,78.10
2018-09-05T02:49:28.731Z,77.10
2018-09-05T02:51:58.399Z,77.50
2018-09-05T02:54:27.983Z,77.50
2018-09-05T02:56:57.612Z,77.70
2018-09-05T02:59:27.399Z,77.90
2018-09-05T03:01:57.114Z,77.90
2018-09-05T03:04:26.843Z,77.80
2018-09-05T03:06:56.554Z,77.80
2018-09-05T03:09:26.319Z,77.80
2018-09-05T03:11:55.896Z,77.60
2018-09-05T03:14:25.536Z,77.80
2018-09-05T03:16:55.404Z,78.00
2018-09-05T03:19:25.000Z,78.80
2018-09-05T03:21:54.803Z,79.10
2018-09-05T03:24:24.471Z,78.80
2018-09-05T03:26:54.160Z,78.80
2018-09-05T03:29:23.768Z,78.40
2018-09-05T03:31:53.394Z,78.60
2018-09-05T03:34:23.140Z,78.90
2018-09-05T03:36:52.846Z,79.00
2018-09-05T03:39:22.423Z,79.00
2018-09-05T03:41:52.328Z,79.00
2018-09-05T03:44:22.054Z,79.10
2018-09-05T03:46:51.809Z,79.20
2018-09-05T03:49:21.432Z,79.10
2018-09-05T03:51:50.982Z,78.90
2018-09-05T03:54:20.579Z,78.80
2018-09-05T03:56:50.201Z,79.00
2018-09-05T03:59:20.023Z,78.90
2018-09-05T04:01:49.715Z,78.80
2018-09-05T04:04:19.472Z,79.10
2018-09-05T04:06:49.223Z,79.40
2018-09-05T04:09:18.952Z,79.10
2018-09-05T04:11:48.599Z,79.10
2018-09-05T04:14:18.307Z,79.50
2018-09-05T04:16:48.197Z,79.60
2018-09-05T04:19:17.868Z,79.80
2018-09-05T04:21:47.648Z,80.00
2018-09-05T04:24:17.240Z,80.20
2018-09-05T04:26:47.025Z,80.00
2018-09-05T04:29:16.878Z,80.00
2018-09-05T04:31:46.497Z,80.30
2018-09-05T04:34:16.242Z,80.00
2018-09-05T04:36:45.998Z,79.80
2018-09-05T04:39:15.705Z,79.10
2018-09-05T04:41:45.354Z,79.80
2018-09-05T04:44:15.022Z,79.80
2018-09-05T04:46:44.685Z,79.70
2018-09-05T04:49:14.296Z,79.70
2018-09-05T04:51:44.049Z,79.70
2018-09-05T04:54:13.686Z,79.70
2018-09-05T04:56:43.476Z,79.50
2018-09-05T04:59:13.138Z,79.60
2018-09-05T05:01:42.931Z,79.50
2018-09-05T05:04:12.857Z,79.50
2018-09-05T05:06:42.538Z,79.40
2018-09-05T05:09:12.971Z,79.30
2018-09-05T05:11:42.896Z,79.40
2018-09-05T05:14:12.852Z,79.40
2018-09-05T05:16:42.506Z,79.30
2018-09-05T05:19:12.173Z,79.30
2018-09-05T05:21:41.917Z,79.40
2018-09-05T05:24:11.591Z,79.40
2018-09-05T05:26:41.352Z,80.20
2018-09-05T05:29:11.043Z,79.20
2018-09-05T05:31:41.322Z,79.30
2018-09-05T05:34:11.168Z,79.50
2018-09-05T05:36:40.791Z,79.40
2018-09-05T05:39:11.809Z,79.50
2018-09-05T05:41:41.456Z,79.30
2018-09-05T05:44:11.201Z,79.30
2018-09-05T05:46:42.105Z,79.40
2018-09-05T05:49:11.790Z,79.50
2018-09-05T05:51:41.483Z,79.20
2018-09-05T05:54:11.187Z,79.40
2018-09-05T05:56:41.057Z,79.20
2018-09-05T05:59:10.637Z,79.30
2018-09-05T06:01:40.253Z,79.30
2018-09-05T06:04:09.974Z,80.00
2018-09-05T06:06:39.667Z,79.10
2018-09-05T06:09:11.109Z,79.30
2018-09-05T06:11:40.796Z,79.30
2018-09-05T06:14:10.358Z,79.30
2018-09-05T06:16:40.179Z,79.40
2018-09-05T06:19:09.841Z,79.30
2018-09-05T06:21:39.609Z,79.20
2018-09-05T06:24:09.338Z,79.10
2018-09-05T06:26:39.345Z,79.20
2018-09-05T06:29:09.125Z,79.20
2018-09-05T06:31:38.867Z,79.20
2018-09-05T06:34:08.706Z,79.20
2018-09-05T06:36:38.367Z,79.00
2018-09-05T06:39:10.649Z,78.80
2018-09-05T06:42:20.462Z,78.60
2018-09-05T06:44:50.167Z,78.80
2018-09-05T06:47:19.937Z,78.50
2018-09-05T06:49:49.582Z,78.30
2018-09-05T06:52:19.323Z,78.10
2018-09-05T06:54:48.971Z,78.10
2018-09-05T06:57:18.650Z,77.50
2018-09-05T06:59:48.344Z,77.20
2018-09-05T07:02:18.026Z,77.10
2018-09-05T07:04:47.722Z,77.20
2018-09-05T07:07:17.402Z,77.10
2018-09-05T07:09:47.160Z,77.10
2018-09-05T07:12:16.837Z,76.90
2018-09-05T07:14:46.450Z,76.80
2018-09-05T07:17:16.094Z,76.80
2018-09-05T07:19:45.709Z,76.70
2018-09-05T07:22:15.361Z,76.40
2018-09-05T07:24:44.978Z,76.30
2018-09-05T07:27:14.561Z,76.40
2018-09-05T07:29:44.191Z,76.00
2018-09-05T07:32:13.827Z,75.80
2018-09-05T07:34:43.360Z,75.50
2018-09-05T07:37:12.938Z,75.30
2018-09-05T07:39:42.718Z,75.20
2018-09-05T07:42:12.494Z,74.90
2018-09-05T07:44:42.220Z,74.80
2018-09-05T07:47:11.900Z,74.20
2018-09-05T07:49:41.614Z,73.70
2018-09-05T07:52:11.294Z,73.30
2018-09-05T07:54:41.124Z,72.90
2018-09-05T07:57:10.738Z,72.90
2018-09-05T07:59:40.463Z,72.70
2018-09-05T08:02:10.215Z,72.40
2018-09-05T08:04:39.975Z,72.00
2018-09-05T08:07:09.662Z,72.00
2018-09-05T08:09:39.463Z,72.10
2018-09-05T08:12:09.067Z,71.60
2018-09-05T08:14:38.927Z,71.20
2018-09-05T08:17:08.621Z,70.80
2018-09-05T08:19:38.349Z,70.30
2018-09-05T08:22:08.107Z,70.10
2018-09-05T08:24:37.924Z,69.80
2018-09-05T08:27:07.556Z,69.20
2018-09-05T08:29:37.246Z,69.10
2018-09-05T08:32:07.142Z,68.90
2018-09-05T08:34:36.759Z,67.20
2018-09-05T08:37:06.707Z,67.40
2018-09-05T08:39:36.376Z,67.60
2018-09-05T08:42:06.229Z,66.50
2018-09-05T08:44:35.905Z,65.90
2018-09-05T08:47:05.709Z,66.20
2018-09-05T08:49:35.458Z,66.00
2018-09-05T08:52:05.399Z,66.00
2018-09-05T08:54:35.066Z,65.50
2018-09-05T08:57:04.829Z,66.60
2018-09-05T08:59:34.510Z,65.50
2018-09-05T09:02:04.281Z,65.50
2018-09-05T09:04:34.024Z,65.80
2018-09-05T09:07:03.925Z,65.90
2018-09-05T09:09:33.612Z,65.90
2018-09-05T09:12:03.402Z,65.70
2018-09-05T09:14:33.158Z,65.90
2018-09-05T09:17:02.786Z,65.90
2018-09-05T09:19:34.241Z,65.50
2018-09-05T09:22:03.778Z,66.40
2018-09-05T09:24:33.515Z,65.10
2018-09-05T09:27:03.199Z,65.00
2018-09-05T09:29:32.962Z,65.40
2018-09-05T09:32:02.880Z,65.80
2018-09-05T09:34:32.738Z,65.30
2018-09-05T09:37:02.453Z,65.10
2018-09-05T09:39:32.159Z,64.70
2018-09-05T09:42:01.838Z,64.30
2018-09-05T09:44:31.544Z,63.60
2018-09-05T09:47:01.238Z,62.90
2018-09-05T09:49:30.935Z,62.90
2018-09-05T09:52:05.800Z,63.80
2018-09-05T09:54:35.466Z,62.80
2018-09-05T09:57:05.318Z,62.30
2018-09-05T09:59:35.180Z,61.60
2018-09-05T10:02:09.939Z,61.10
2018-09-05T10:04:44.784Z,60.90
2018-09-05T10:07:19.987Z,59.90
2018-09-05T10:10:55.112Z,60.00
2018-09-05T10:13:29.987Z,59.30
2018-09-05T10:16:04.878Z,59.10
2018-09-05T10:18:37.590Z,58.00
2018-09-05T10:21:07.333Z,57.50
2018-09-05T10:23:37.008Z,57.50
2018-09-05T10:26:06.771Z,57.60
2018-09-05T10:28:36.452Z,57.90
2018-09-05T10:31:06.235Z,57.10
2018-09-05T10:33:35.929Z,57.50
2018-09-05T10:36:05.663Z,57.20
2018-09-05T10:38:35.389Z,56.90
2018-09-05T10:41:05.227Z,56.90
2018-09-05T10:43:35.063Z,57.00
2018-09-05T10:46:04.821Z,56.90
2018-09-05T10:48:34.649Z,56.30
2018-09-05T10:51:04.372Z,56.40
2018-09-05T10:53:33.987Z,55.80
2018-09-05T10:56:03.721Z,56.10
2018-09-05T10:58:33.403Z,56.20
2018-09-05T11:01:03.163Z,55.40
2018-09-05T11:03:32.910Z,55.90
2018-09-05T11:06:02.640Z,55.60
2018-09-05T11:08:32.469Z,55.50
2018-09-05T11:11:02.073Z,55.10
2018-09-05T11:13:31.699Z,55.10
2018-09-05T11:16:01.336Z,53.20
2018-09-05T11:18:31.059Z,53.30
2018-09-05T11:21:00.871Z,52.30
2018-09-05T11:23:30.633Z,50.80
2018-09-05T11:26:00.362Z,50.10
2018-09-05T11:28:30.042Z,47.40
2018-09-05T11:30:59.916Z,47.10
2018-09-05T11:33:29.573Z,46.50
2018-09-05T11:35:59.467Z,45.80
2018-09-05T11:38:29.144Z,45.00
2018-09-05T11:40:58.857Z,44.90
2018-09-05T11:43:28.449Z,44.20
2018-09-05T11:45:58.251Z,44.80
2018-09-05T11:48:27.952Z,44.40
2018-09-05T11:50:57.677Z,44.20
2018-09-05T11:53:27.491Z,44.30
2018-09-05T11:55:57.168Z,43.90
2018-09-05T11:58:26.839Z,44.10
2018-09-05T12:00:56.420Z,43.40
2018-09-05T12:03:26.142Z,43.80
2018-09-05T12:05:56.082Z,44.10
2018-09-05T12:08:25.756Z,43.60
2018-09-05T12:10:55.488Z,44.00
2018-09-05T12:13:25.232Z,43.80
2018-09-05T12:15:54.834Z,43.90
2018-09-05T12:18:24.402Z,44.00
2018-09-05T12:20:54.130Z,44.30
2018-09-05T12:23:23.745Z,43.10
2018-09-05T12:25:53.478Z,42.70
2018-09-05T12:28:23.202Z,42.90
2018-09-05T12:30:52.899Z,43.10
2018-09-05T12:33:22.618Z,43.30
2018-09-05T12:35:52.525Z,42.70
2018-09-05T12:38:22.228Z,41.50
2018-09-05T12:40:51.835Z,40.70
2018-09-05T12:43:21.824Z,40.30
2018-09-05T12:45:51.547Z,40.20
2018-09-05T12:48:21.203Z,40.60
2018-09-05T12:50:50.877Z,40.30
2018-09-05T12:53:20.559Z,40.50
2018-09-05T12:55:50.105Z,40.00
2018-09-05T12:58:19.823Z,40.10
2018-09-05T13:00:49.589Z,39.70
2018-09-05T13:03:19.294Z,38.70
2018-09-05T13:05:49.065Z,38.30
2018-09-05T13:08:18.883Z,37.50
2018-09-05T13:10:48.552Z,37.40
2018-09-05T13:13:18.310Z,38.50
2018-09-05T13:15:48.183Z,39.00
2018-09-05T13:18:18.001Z,39.30
2018-09-05T13:20:47.931Z,39.70
2018-09-05T13:23:17.782Z,39.50
2018-09-05T13:25:47.381Z,40.20
2018-09-05T13:28:17.014Z,40.10
2018-09-05T13:30:46.783Z,39.60
2018-09-05T13:33:16.524Z,40.10
2018-09-05T13:35:46.310Z,39.70
2018-09-05T13:38:16.034Z,39.90
2018-09-05T13:40:45.842Z,40.10
2018-09-05T13:43:15.715Z,41.40
2018-09-05T13:45:45.508Z,40.90
2018-09-05T13:48:15.277Z,41.40
2018-09-05T13:50:45.070Z,41.50
2018-09-05T13:53:14.726Z,42.30
2018-09-05T13:55:44.472Z,43.40
2018-09-05T13:58:14.208Z,42.80
2018-09-05T14:00:43.879Z,42.60
2018-09-05T14:03:13.582Z,42.10
2018-09-05T14:05:43.250Z,42.40
2018-09-05T14:08:12.833Z,42.00
2018-09-05T14:10:42.651Z,41.90
2018-09-05T14:13:12.317Z,42.10
2018-09-05T14:15:42.100Z,41.80
2018-09-05T14:18:11.737Z,42.00
2018-09-05T14:20:41.605Z,42.20
2018-09-05T14:23:11.106Z,42.20
2018-09-05T14:25:40.790Z,42.20
2018-09-05T14:28:10.737Z,41.80
2018-09-05T14:30:40.495Z,42.10
2018-09-05T14:33:10.250Z,42.30
2018-09-05T14:35:39.991Z,42.80
2018-09-05T14:38:09.650Z,42.90
2018-09-05T14:40:39.394Z,43.00
2018-09-05T14:43:09.354Z,42.90
2018-09-05T14:45:39.021Z,43.40
2018-09-05T14:48:08.763Z,43.70
2018-09-05T14:50:38.587Z,43.90
2018-09-05T14:53:08.550Z,44.10
2018-09-05T14:55:38.494Z,44.20
2018-09-05T14:58:08.419Z,44.40
2018-09-05T15:00:38.266Z,45.40
2018-09-05T15:03:07.971Z,44.90
2018-09-05T15:05:37.786Z,45.00
2018-09-05T15:08:07.623Z,45.10
2018-09-05T15:10:37.526Z,44.70
2018-09-05T15:13:07.310Z,44.70
2018-09-05T15:15:37.111Z,45.10
2018-09-05T15:18:07.183Z,44.90
2018-09-05T15:20:41.270Z,45.00
2018-09-05T15:23:20.646Z,44.30
2018-09-05T15:25:51.825Z,44.40
2018-09-05T15:28:21.753Z,44.20
2018-09-05T15:30:51.389Z,44.50
2018-09-05T15:33:21.243Z,44.20
2018-09-05T15:35:51.380Z,44.30
2018-09-05T15:38:21.026Z,44.30
2018-09-05T15:40:50.901Z,44.10
2018-09-05T15:43:20.589Z,44.10
2018-09-05T15:45:50.376Z,44.00
2018-09-05T15:48:20.257Z,43.70
2018-09-05T15:50:50.120Z,44.20
2018-09-05T15:53:19.909Z,44.10
2018-09-05T15:55:49.679Z,44.20
2018-09-05T15:58:19.391Z,44.40
2018-09-05T16:00:49.127Z,44.30
2018-09-05T16:03:18.897Z,44.60
2018-09-05T16:05:48.569Z,44.70
2018-09-05T16:08:18.576Z,44.40
2018-09-05T16:10:48.283Z,44.80
2018-09-05T16:13:17.935Z,45.40
2018-09-05T16:15:47.845Z,45.90
2018-09-05T16:18:17.598Z,46.00
2018-09-05T16:20:47.582Z,46.20
2018-09-05T16:23:17.392Z,46.10
2018-09-05T16:25:47.231Z,46.20
2018-09-05T16:28:17.074Z,46.50
2018-09-05T16:30:46.864Z,46.50
2018-09-05T16:33:16.582Z,46.50
2018-09-05T16:35:46.454Z,46.60
2018-09-05T16:38:17.027Z,47.00
2018-09-05T16:40:47.089Z,47.50
2018-09-05T16:43:16.876Z,47.70
2018-09-05T16:45:46.698Z,46.80
2018-09-05T16:48:16.640Z,46.70
2018-09-05T16:50:46.422Z,47.00
2018-09-05T16:53:16.300Z,46.80
2018-09-05T16:55:46.218Z,46.80
2018-09-05T16:58:16.062Z,46.60
2018-09-05T17:00:45.861Z,46.80
2018-09-05T17:03:15.523Z,47.10
2018-09-05T17:05:45.358Z,47.30
2018-09-05T17:08:15.259Z,47.40
2018-09-05T17:10:45.008Z,47.60
2018-09-05T17:13:14.945Z,47.80
2018-09-05T17:15:44.801Z,47.70
2018-09-05T17:18:14.603Z,47.90
2018-09-05T17:20:44.411Z,47.90
2018-09-05T17:23:14.639Z,48.20
2018-09-05T17:25:44.888Z,48.40
2018-09-05T17:28:15.397Z,48.60
2018-09-05T17:30:45.371Z,48.70
2018-09-05T17:33:15.979Z,48.80
2018-09-05T17:35:46.391Z,49.10
2018-09-05T17:38:16.495Z,49.30
2018-09-05T17:40:46.329Z,49.40
2018-09-05T17:43:16.202Z,49.50
2018-09-05T17:45:46.341Z,49.60
2018-09-05T17:48:16.129Z,49.70
2018-09-05T17:50:46.008Z,49.80
2018-09-05T17:53:15.828Z,49.90
2018-09-05T17:55:45.691Z,49.90
2018-09-05T17:58:15.355Z,50.00
2018-09-05T18:00:45.150Z,50.10
2018-09-05T18:03:14.950Z,50.20
2018-09-05T18:05:44.947Z,50.80
2018-09-05T18:08:14.745Z,50.30
2018-09-05T18:10:44.655Z,50.50
2018-09-05T18:13:14.532Z,50.60
2018-09-05T18:15:44.319Z,50.80
2018-09-05T18:18:14.006Z,50.80
2018-09-05T18:20:43.827Z,50.80
2018-09-05T18:23:13.551Z,50.70
2018-09-05T18:25:43.350Z,50.80
2018-09-05T18:28:13.602Z,50.80
2018-09-05T18:30:43.461Z,50.90
2018-09-05T18:33:13.154Z,51.00
2018-09-05T18:35:42.907Z,51.00
2018-09-05T18:38:12.588Z,51.00
2018-09-05T18:40:42.359Z,51.20
2018-09-05T18:43:12.158Z,51.10
2018-09-05T18:45:41.819Z,51.10
2018-09-05T18:48:11.514Z,51.20
2018-09-05T18:50:41.270Z,51.20
2018-09-05T18:53:12.310Z,51.10
2018-09-05T18:55:43.282Z,51.10
2018-09-05T18:58:13.131Z,51.10
2018-09-05T19:00:43.000Z,51.00
2018-09-05T19:03:12.578Z,51.00
2018-09-05T19:05:42.465Z,50.90
2018-09-05T19:08:12.220Z,50.90
2018-09-05T19:10:42.076Z,50.90
2018-09-05T19:13:11.699Z,50.90
2018-09-05T19:15:41.522Z,50.90
2018-09-05T19:18:11.241Z,50.90
2018-09-05T19:20:40.866Z,50.90
2018-09-05T19:23:10.534Z,51.00
2018-09-05T19:25:40.296Z,50.90
2018-09-05T19:28:10.000Z,50.90
2018-09-05T19:30:39.731Z,50.90
2018-09-05T19:33:09.509Z,50.90
2018-09-05T19:35:39.417Z,51.00
2018-09-05T19:38:08.959Z,50.90
2018-09-05T19:40:38.946Z,51.10
2018-09-05T19:43:08.863Z,51.30
2018-09-05T19:45:39.100Z,51.30
2018-09-05T19:48:09.196Z,51.40
2018-09-05T19:50:39.739Z,51.50
2018-09-05T19:53:09.707Z,52.20
2018-09-05T19:55:39.516Z,51.60
2018-09-05T19:58:09.155Z,51.70
2018-09-05T20:00:38.918Z,51.90
2018-09-05T20:03:11.722Z,51.90
2018-09-05T20:05:41.731Z,52.00
2018-09-05T20:08:11.635Z,52.10
2018-09-05T20:10:41.320Z,52.10
2018-09-05T20:13:11.015Z,52.20
2018-09-05T20:15:40.720Z,52.20
2018-09-05T20:18:10.510Z,52.20
2018-09-05T20:20:40.418Z,52.30
2018-09-05T20:23:11.156Z,52.30
2018-09-05T20:25:40.807Z,52.30
2018-09-05T20:28:10.888Z,52.40
2018-09-05T20:30:40.569Z,52.40
2018-09-05T20:33:10.229Z,52.40
2018-09-05T20:35:40.149Z,52.40
2018-09-05T20:38:09.947Z,52.50
2018-09-05T20:40:39.859Z,52.50
2018-09-05T20:43:09.527Z,52.60
2018-09-05T20:45:39.273Z,52.60
2018-09-05T20:48:08.999Z,53.00
2018-09-05T20:50:38.581Z,53.30
2018-09-05T20:53:09.271Z,53.90
2018-09-05T20:55:39.139Z,54.40
2018-09-05T20:58:09.443Z,54.50
2018-09-05T21:00:39.465Z,54.40
2018-09-05T21:03:09.351Z,54.30
2018-09-05T21:05:39.242Z,54.50
2018-09-05T21:08:08.838Z,54.80
2018-09-05T21:10:38.622Z,54.80
2018-09-05T21:13:08.322Z,55.40
2018-09-05T21:15:38.110Z,55.60
2018-09-05T21:18:07.975Z,55.70
2018-09-05T21:20:37.742Z,56.30
2018-09-05T21:23:07.450Z,57.20
2018-09-05T21:25:37.432Z,57.50
2018-09-05T21:28:07.260Z,58.10
2018-09-05T21:30:36.962Z,58.10
2018-09-05T21:33:06.806Z,58.50
2018-09-05T21:35:36.541Z,58.90
2018-09-05T21:38:06.198Z,59.20
2018-09-05T21:40:35.797Z,59.30
2018-09-05T21:43:05.563Z,59.20
2018-09-05T21:45:35.343Z,59.70
2018-09-05T21:48:05.109Z,59.80
2018-09-05T21:50:34.927Z,59.90
2018-09-05T21:53:04.944Z,60.20
2018-09-05T21:55:35.027Z,60.70
2018-09-05T21:58:04.813Z,60.60
2018-09-05T22:00:34.521Z,61.10
2018-09-05T22:03:04.171Z,61.70
2018-09-05T22:05:33.905Z,61.90
2018-09-05T22:08:03.663Z,62.30
2018-09-05T22:10:33.377Z,62.70
2018-09-05T22:13:03.233Z,63.70
2018-09-05T22:15:38.014Z,63.90
2018-09-05T22:18:07.862Z,65.00
2018-09-05T22:20:37.546Z,64.80
2018-09-05T22:23:07.426Z,65.50
2018-09-05T22:25:37.335Z,65.90
2018-09-05T22:28:07.053Z,66.40
2018-09-05T22:30:36.757Z,66.90
2018-09-05T22:33:06.447Z,67.80
2018-09-05T22:35:36.188Z,68.50
2018-09-05T22:38:05.894Z,69.10
2018-09-05T22:40:40.944Z,70.70
2018-09-05T22:43:27.392Z,71.40
2018-09-05T22:46:13.616Z,71.10
2018-09-05T22:48:58.696Z,71.70
2018-09-05T22:52:19.555Z,72.10
2018-09-05T22:57:26.129Z,72.50
2018-09-05T23:02:14.286Z,73.00
2018-09-05T23:05:08.514Z,73.40
2018-09-05T23:08:52.823Z,73.40
2018-09-05T23:11:55.829Z,73.70
2018-09-05T23:14:43.646Z,74.40
2018-09-05T23:17:37.017Z,74.10
2018-09-05T23:20:26.772Z,74.70
2018-09-05T23:23:14.570Z,75.40
2018-09-05T23:25:44.749Z,76.10
2018-09-05T23:28:17.977Z,76.10
2018-09-05T23:30:47.689Z,76.70
2018-09-05T23:33:17.451Z,76.80
2018-09-05T23:35:47.083Z,77.40
2018-09-05T23:38:16.775Z,79.00
2018-09-05T23:40:46.428Z,79.30
2018-09-05T23:43:16.070Z,79.80
2018-09-05T23:45:45.779Z,80.30
2018-09-05T23:48:15.619Z,80.70
2018-09-05T23:50:45.575Z,81.80
2018-09-05T23:53:15.370Z,81.80
2018-09-05T23:55:45.279Z,82.00
2018-09-05T23:58:15.063Z,82.00
